• Join FlightAware (Why Join?)
  • Login
  • US Flag GB Flag 
10:22 EDT


 

Airport Tracker/Info


-or-


 

Live Flight TrackerFlight Track Log ✈ SKW5500 ✈ 28-Apr-2013 ✈ KDEN - KASE

Flight Track Log - Related Links

Times and Time Zones

All times are in EDT time to prevent confusion due to time zone crossing. See the SKW5500 flight status page for this flight to view local times or setup timezone preferences in your user account.

Time Position Orientation Groundspeed Altitude Reporting Facility
EDT Latitude Longitude Course Direction KTS MPH feet Rate Location/Type
17:47 39.7058 -105.2250 250° West  Level Estimated
17:48 39.6743 -105.3351 250° West  Level Estimated
17:49 39.6427 -105.4451 250° West  Level Estimated
17:50 39.6110 -105.5549 250° West  Level Estimated
17:51 39.5793 -105.6647 249° West  Level Estimated
17:52 39.5474 -105.7744 249° West  Level Estimated
17:53 39.5154 -105.8839 249° West  Level Estimated
17:54 39.4832 -105.9934 249° West  Level Estimated
17:55 39.4510 -106.1027 249° West  Level Estimated
17:56 39.4187 -106.2120 249° West  Level Estimated
17:57 39.3863 -106.3212 249° West  Level Estimated
17:58 39.3538 -106.4302 249° West  Level Estimated
17:59 39.3212 -106.5392 249° West  Level Estimated
18:00 39.2885 -106.6480 249° West  Level Estimated
18:01 39.2556 -106.7568 249° West  Level Estimated
18:02 39.2227 -106.8654 249° West  Level Estimated
18:03 39.2219 -106.8682 249° West  Level Estimated
18:04 39.2219 -106.8682 239° Southwest  Level Estimated
18:05 39.2219 -106.8682 239° Southwest  Level Estimated
18:06 39.2219 -106.8682 239° Southwest  Level Estimated
18:07 39.2219 -106.8682 239° Southwest  Level Estimated
18:08 39.2219 -106.8682 239° Southwest  Level Estimated
18:09 39.2219 -106.8682 239° Southwest  Level Estimated